Time;durP1;ratioP1;P1;durP2;ratioP2;P2;SDS_P1;SDS_P2;PMS_P1;PMS_P2;Temp;Humidity;BMP_temperature;BMP_pressure;BME280_temperature;BME280_humidity;BME280_pressure;Samples;Min_cycle;Max_cycle;Signal;HPM_P1;HPM_P2
2022/01/07 00:00:52;;;;;;;11.43;4.53;;;;;;;;;;5071087;28;20149;-76
2022/01/07 00:03:18;;;;;;;11.27;4.72;;;;;;;;;;5071636;28;20101;-76
2022/01/07 00:05:44;;;;;;;7.28;3.92;;;;;;;;;;5071039;28;20115;-75
2022/01/07 00:08:10;;;;;;;15.68;5.53;;;;;;;;;;5071148;28;20161;-76
2022/01/07 00:10:36;;;;;;;8.98;4.20;;;;;;;;;;5070980;28;20037;-77
2022/01/07 00:13:03;;;;;;;13.95;4.30;;;;;;;;;;5070940;28;20139;-76
2022/01/07 00:15:29;;;;;;;11.23;4.78;;;;;;;;;;5070832;28;20465;-75
2022/01/07 00:17:55;;;;;;;12.70;4.22;;;;;;;;;;5070879;28;20392;-74
2022/01/07 00:20:21;;;;;;;12.38;4.50;;;;;;;;;;5070828;28;20135;-77
2022/01/07 00:22:47;;;;;;;13.23;5.63;;;;;;;;;;5070710;28;20127;-76
2022/01/07 00:25:14;;;;;;;10.23;5.10;;;;;;;;;;5070948;28;20041;-75
2022/01/07 00:27:40;;;;;;;10.35;4.82;;;;;;;;;;5070805;28;20043;-75
2022/01/07 00:30:07;;;;;;;7.90;4.35;;;;;;;;;;5070709;28;20500;-74
2022/01/07 00:32:34;;;;;;;13.85;4.65;;;;;;;;;;5070832;28;20041;-77
2022/01/07 00:35:00;;;;;;;12.32;4.65;;;;;;;;;;5070973;28;20051;-75
2022/01/07 00:37:26;;;;;;;13.25;4.25;;;;;;;;;;5071241;28;20131;-75
2022/01/07 00:39:52;;;;;;;14.15;4.80;;;;;;;;;;5070962;28;20641;-78
2022/01/07 00:42:18;;;;;;;13.38;5.05;;;;;;;;;;5071165;28;20047;-75
2022/01/07 00:44:44;;;;;;;12.95;5.10;;;;;;;;;;5071331;28;20372;-78
2022/01/07 00:47:10;;;;;;;9.82;5.25;;;;;;;;;;5070990;28;20094;-75
2022/01/07 00:49:36;;;;;;;10.10;4.72;;;;;;;;;;5070808;28;20380;-75
2022/01/07 00:52:02;;;;;;;11.18;4.40;;;;;;;;;;5089662;28;20101;-75
2022/01/07 00:54:28;;;;;;;9.98;4.53;;;;;;;;;;5091194;28;20047;-76
2022/01/07 00:56:54;;;;;;;12.38;4.38;;;;;;;;;;5091076;28;20032;-75
2022/01/07 00:59:21;;;;;;;12.15;4.78;;;;;;;;;;5087495;28;20044;-74
2022/01/07 01:01:47;;;;;;;13.15;4.60;;;;;;;;;;5082285;28;20119;-76
2022/01/07 01:04:13;;;;;;;14.65;4.15;;;;;;;;;;5090021;28;20111;-74
2022/01/07 01:06:41;;;;;;;10.50;4.38;;;;;;;;;;5091125;28;20059;-74
2022/01/07 01:09:10;;;;;;;9.80;4.32;;;;;;;;;;5091220;28;20445;-76
2022/01/07 01:11:37;;;;;;;15.18;4.22;;;;;;;;;;5073925;28;20547;-73
2022/01/07 01:14:03;;;;;;;14.85;4.75;;;;;;;;;;5091109;28;20046;-75
2022/01/07 01:16:29;;;;;;;13.02;4.25;;;;;;;;;;5074174;28;20055;-74
2022/01/07 01:18:55;;;;;;;11.70;4.45;;;;;;;;;;5090785;28;20086;-77
2022/01/07 01:21:21;;;;;;;13.63;5.13;;;;;;;;;;5074017;28;20047;-74
2022/01/07 01:23:48;;;;;;;12.27;4.88;;;;;;;;;;5074116;28;20036;-75
2022/01/07 01:26:14;;;;;;;9.07;3.80;;;;;;;;;;5091208;28;20490;-76
2022/01/07 01:28:40;;;;;;;11.52;4.10;;;;;;;;;;5073889;28;20032;-75
2022/01/07 01:31:06;;;;;;;10.70;3.60;;;;;;;;;;5074167;28;20472;-75
2022/01/07 01:33:32;;;;;;;13.68;4.82;;;;;;;;;;5074047;28;20052;-74
2022/01/07 01:35:58;;;;;;;8.93;4.45;;;;;;;;;;5094981;28;20039;-74
2022/01/07 01:38:27;;;;;;;9.65;5.30;;;;;;;;;;5114748;28;20039;-74
2022/01/07 01:40:53;;;;;;;15.27;4.05;;;;;;;;;;5114562;28;20070;-76
2022/01/07 01:43:19;;;;;;;15.45;5.22;;;;;;;;;;5078038;28;20024;-75
2022/01/07 01:45:45;;;;;;;10.00;4.97;;;;;;;;;;5074132;28;20039;-76
2022/01/07 01:48:11;;;;;;;7.03;2.83;;;;;;;;;;5073847;28;20499;-76
2022/01/07 01:50:37;;;;;;;13.15;4.38;;;;;;;;;;5073953;28;20131;-75
2022/01/07 01:53:03;;;;;;;8.02;4.22;;;;;;;;;;5073865;28;20048;-75
2022/01/07 01:55:29;;;;;;;9.82;4.57;;;;;;;;;;5073786;28;20040;-77
2022/01/07 01:57:55;;;;;;;5.82;4.32;;;;;;;;;;5074003;28;20127;-77
2022/01/07 02:00:23;;;;;;;13.82;4.68;;;;;;;;;;5073886;28;20041;-76
2022/01/07 02:02:49;;;;;;;10.05;4.93;;;;;;;;;;5073644;28;20039;-75
2022/01/07 02:05:15;;;;;;;15.82;5.10;;;;;;;;;;5084977;28;20036;-76
2022/01/07 02:07:42;;;;;;;11.65;5.72;;;;;;;;;;5094298;28;20047;-76
2022/01/07 02:10:09;;;;;;;7.60;3.90;;;;;;;;;;5076939;28;20504;-77
2022/01/07 02:12:35;;;;;;;20.13;6.13;;;;;;;;;;5076796;28;20139;-75
2022/01/07 02:15:01;;;;;;;10.45;5.50;;;;;;;;;;5076864;28;20050;-75
2022/01/07 02:17:27;;;;;;;10.65;5.25;;;;;;;;;;5093862;28;20039;-75
2022/01/07 02:19:54;;;;;;;8.82;2.67;;;;;;;;;;5093697;28;20079;-77
2022/01/07 02:22:20;;;;;;;15.05;6.40;;;;;;;;;;5093878;28;20048;-75
2022/01/07 02:24:48;;;;;;;4.65;3.47;;;;;;;;;;5076412;28;20032;-75
2022/01/07 02:27:14;;;;;;;9.73;4.78;;;;;;;;;;5093549;28;20071;-76
2022/01/07 02:29:42;;;;;;;7.88;4.53;;;;;;;;;;5093186;28;20052;-76
2022/01/07 02:32:08;;;;;;;11.02;4.97;;;;;;;;;;5093475;28;20452;-76
2022/01/07 02:34:34;;;;;;;19.67;6.47;;;;;;;;;;5091728;28;20541;-74
2022/01/07 02:37:00;;;;;;;9.00;4.25;;;;;;;;;;5093205;28;20043;-75
2022/01/07 02:39:26;;;;;;;11.27;4.82;;;;;;;;;;5075980;28;20413;-75
2022/01/07 02:41:52;;;;;;;11.88;5.60;;;;;;;;;;5076327;28;20075;-75
2022/01/07 02:44:18;;;;;;;7.85;4.30;;;;;;;;;;5093074;28;20392;-76
2022/01/07 02:46:45;;;;;;;16.13;5.95;;;;;;;;;;5093131;28;20404;-76
2022/01/07 02:49:16;;;;;;;12.57;6.22;;;;;;;;;;5093505;28;20044;-76
2022/01/07 02:51:43;;;;;;;9.32;5.88;;;;;;;;;;5093447;28;20456;-75
2022/01/07 02:54:09;;;;;;;15.02;6.18;;;;;;;;;;5093324;28;20119;-76
2022/01/07 02:56:35;;;;;;;13.52;6.30;;;;;;;;;;5076326;28;20088;-75
2022/01/07 02:59:02;;;;;;;11.70;5.70;;;;;;;;;;5093049;28;20544;-75
2022/01/07 03:01:28;;;;;;;10.50;4.57;;;;;;;;;;5076265;28;20088;-74
2022/01/07 03:03:54;;;;;;;11.73;6.35;;;;;;;;;;5076395;28;20413;-78
2022/01/07 03:06:21;;;;;;;13.05;5.63;;;;;;;;;;5112982;28;20035;-75
2022/01/07 03:08:48;;;;;;;11.65;4.70;;;;;;;;;;5096163;28;20046;-75
2022/01/07 03:11:14;;;;;;;10.88;5.20;;;;;;;;;;5112785;28;20048;-75
2022/01/07 03:13:40;;;;;;;11.77;5.82;;;;;;;;;;5113498;28;20198;-75
2022/01/07 03:16:06;;;;;;;9.27;5.28;;;;;;;;;;5113311;28;20043;-75
2022/01/07 03:18:32;;;;;;;12.27;6.32;;;;;;;;;;5095959;28;20086;-75
2022/01/07 03:20:59;;;;;;;10.73;6.28;;;;;;;;;;5112765;28;20039;-74
2022/01/07 03:23:25;;;;;;;12.00;5.97;;;;;;;;;;5095924;28;20071;-74
2022/01/07 03:25:51;;;;;;;9.93;5.32;;;;;;;;;;5112970;28;20043;-76
2022/01/07 03:28:18;;;;;;;8.85;5.53;;;;;;;;;;5113019;28;20092;-77
2022/01/07 03:30:44;;;;;;;12.10;5.35;;;;;;;;;;5112838;28;20046;-76
2022/01/07 03:33:10;;;;;;;8.85;5.60;;;;;;;;;;5112557;28;20035;-75
2022/01/07 03:35:36;;;;;;;8.10;4.90;;;;;;;;;;5078851;28;20073;-77
2022/01/07 03:38:03;;;;;;;12.70;6.15;;;;;;;;;;5092467;28;20096;-75
2022/01/07 03:40:29;;;;;;;9.60;5.15;;;;;;;;;;5091791;28;20122;-75
2022/01/07 03:42:56;;;;;;;9.27;5.35;;;;;;;;;;5075159;28;20040;-75
2022/01/07 03:45:22;;;;;;;10.32;5.30;;;;;;;;;;5075359;28;20048;-75
2022/01/07 03:47:49;;;;;;;11.40;6.88;;;;;;;;;;5075281;28;20040;-75
2022/01/07 03:50:16;;;;;;;13.82;7.80;;;;;;;;;;5092131;28;20051;-74
2022/01/07 03:52:42;;;;;;;13.90;5.57;;;;;;;;;;5092361;28;20476;-76
2022/01/07 03:55:10;;;;;;;11.15;5.95;;;;;;;;;;5074910;28;20130;-76
2022/01/07 03:57:36;;;;;;;15.10;7.60;;;;;;;;;;5074580;28;20044;-75
2022/01/07 04:00:02;;;;;;;14.77;8.00;;;;;;;;;;5091934;28;20036;-75
2022/01/07 04:02:28;;;;;;;15.38;7.68;;;;;;;;;;5074942;28;20131;-75
2022/01/07 04:04:55;;;;;;;12.93;6.43;;;;;;;;;;5090678;28;20079;-74
2022/01/07 04:07:21;;;;;;;10.52;5.75;;;;;;;;;;5091694;28;20396;-76
2022/01/07 04:09:47;;;;;;;6.70;5.03;;;;;;;;;;5074706;28;20051;-75
2022/01/07 04:12:13;;;;;;;9.10;6.20;;;;;;;;;;5074478;28;20466;-76
2022/01/07 04:14:39;;;;;;;8.77;6.10;;;;;;;;;;5074759;28;20079;-76
2022/01/07 04:17:07;;;;;;;12.10;6.40;;;;;;;;;;5074568;28;20042;-77
2022/01/07 04:19:33;;;;;;;8.32;4.32;;;;;;;;;;5091547;28;20499;-75
2022/01/07 04:21:59;;;;;;;10.98;5.15;;;;;;;;;;5074601;28;20138;-76
2022/01/07 04:24:25;;;;;;;13.25;6.65;;;;;;;;;;5091529;28;20036;-76
2022/01/07 04:26:51;;;;;;;14.57;7.38;;;;;;;;;;5091319;28;20032;-73
2022/01/07 04:29:17;;;;;;;15.00;7.38;;;;;;;;;;5074457;28;20387;-76
2022/01/07 04:31:43;;;;;;;11.10;7.78;;;;;;;;;;5091440;28;20097;-73
2022/01/07 04:34:09;;;;;;;13.57;7.40;;;;;;;;;;5076493;28;20035;-73
2022/01/07 04:36:36;;;;;;;15.35;7.60;;;;;;;;;;5094638;28;20483;-73
2022/01/07 04:39:03;;;;;;;14.90;6.63;;;;;;;;;;5111662;28;20043;-75
2022/01/07 04:41:29;;;;;;;15.13;8.05;;;;;;;;;;5094617;28;20039;-75
2022/01/07 04:43:55;;;;;;;12.93;7.53;;;;;;;;;;5111542;28;20550;-75
2022/01/07 04:46:21;;;;;;;14.35;8.10;;;;;;;;;;5094383;28;20063;-74
2022/01/07 04:48:47;;;;;;;5.15;3.33;;;;;;;;;;5111629;28;20035;-76
2022/01/07 04:51:13;;;;;;;12.10;8.10;;;;;;;;;;5111848;28;20054;-76
2022/01/07 04:53:39;;;;;;;15.05;7.45;;;;;;;;;;5111525;28;20100;-76
2022/01/07 04:56:05;;;;;;;17.73;7.15;;;;;;;;;;5094454;28;20043;-75
2022/01/07 04:58:31;;;;;;;12.00;7.50;;;;;;;;;;5094329;28;20043;-75
2022/01/07 05:00:57;;;;;;;16.52;7.60;;;;;;;;;;5111455;28;20046;-74
2022/01/07 05:03:22;;;;;;;15.05;7.65;;;;;;;;;;5094336;28;20399;-75
2022/01/07 05:05:59;;;;;;;13.13;6.93;;;;;;;;;;5092874;28;20055;-75
2022/01/07 05:08:25;;;;;;;10.05;5.28;;;;;;;;;;5090910;28;20040;-74
2022/01/07 05:10:51;;;;;;;12.10;6.72;;;;;;;;;;5094147;28;20364;-75
2022/01/07 05:13:17;;;;;;;17.23;7.95;;;;;;;;;;5094598;28;20400;-74
2022/01/07 05:15:43;;;;;;;13.48;6.82;;;;;;;;;;5078437;28;20412;-75
2022/01/07 05:18:09;;;;;;;19.90;7.65;;;;;;;;;;5095210;28;20062;-76
2022/01/07 05:20:35;;;;;;;10.45;6.45;;;;;;;;;;5094941;28;20131;-76
2022/01/07 05:23:00;;;;;;;14.82;7.63;;;;;;;;;;5077868;28;20036;-76
2022/01/07 05:25:27;;;;;;;12.13;6.70;;;;;;;;;;5094781;28;20036;-76
2022/01/07 05:27:53;;;;;;;9.43;5.68;;;;;;;;;;5095083;28;20075;-78
2022/01/07 05:30:19;;;;;;;13.38;7.15;;;;;;;;;;5094856;28;20512;-77
2022/01/07 05:32:45;;;;;;;13.13;7.18;;;;;;;;;;5095148;28;20040;-78
2022/01/07 05:35:11;;;;;;;11.55;7.10;;;;;;;;;;5086852;28;20046;-75
2022/01/07 05:37:37;;;;;;;11.18;5.78;;;;;;;;;;5083389;28;20511;-76
2022/01/07 05:40:04;;;;;;;8.07;4.90;;;;;;;;;;5084889;28;20067;-79
2022/01/07 05:42:30;;;;;;;7.25;4.68;;;;;;;;;;5083315;28;20051;-79
2022/01/07 05:44:57;;;;;;;12.82;6.70;;;;;;;;;;5082668;28;20047;-79
2022/01/07 05:47:23;;;;;;;8.75;5.60;;;;;;;;;;5082683;28;20033;-77
2022/01/07 05:49:48;;;;;;;8.93;5.57;;;;;;;;;;5084017;28;20561;-75
2022/01/07 05:52:14;;;;;;;15.95;7.15;;;;;;;;;;5082397;28;20143;-75
2022/01/07 05:54:40;;;;;;;14.77;6.70;;;;;;;;;;5084649;28;20043;-77
2022/01/07 05:57:06;;;;;;;9.75;5.80;;;;;;;;;;5081982;28;20038;-75
2022/01/07 05:59:32;;;;;;;10.25;6.45;;;;;;;;;;5083414;28;20599;-77
2022/01/07 06:01:58;;;;;;;11.95;5.60;;;;;;;;;;5082961;28;20131;-76
2022/01/07 06:04:24;;;;;;;12.68;6.70;;;;;;;;;;5084997;28;20119;-78
2022/01/07 06:06:50;;;;;;;9.65;5.75;;;;;;;;;;5083732;28;20044;-77
2022/01/07 06:09:16;;;;;;;9.43;6.10;;;;;;;;;;5083945;28;20039;-76
2022/01/07 06:11:44;;;;;;;9.18;5.47;;;;;;;;;;5082107;28;20103;-76
2022/01/07 06:14:09;;;;;;;11.05;5.95;;;;;;;;;;5083552;28;20036;-76
2022/01/07 06:16:36;;;;;;;10.70;6.00;;;;;;;;;;5084183;28;20040;-77
2022/01/07 06:19:02;;;;;;;12.40;6.45;;;;;;;;;;5081825;28;20093;-77
2022/01/07 06:21:30;;;;;;;11.20;6.78;;;;;;;;;;5083172;28;20057;-77
2022/01/07 06:23:56;;;;;;;9.02;5.10;;;;;;;;;;5083638;28;20485;-76
2022/01/07 06:26:22;;;;;;;6.50;4.40;;;;;;;;;;5082029;28;20627;-78
2022/01/07 06:28:48;;;;;;;9.60;5.78;;;;;;;;;;5083602;28;20063;-78
2022/01/07 06:31:14;;;;;;;9.77;5.93;;;;;;;;;;5078281;28;20534;-78
2022/01/07 06:33:40;;;;;;;9.38;6.05;;;;;;;;;;5073205;28;20045;-79
2022/01/07 06:36:06;;;;;;;10.00;6.22;;;;;;;;;;5073281;28;20047;-77
2022/01/07 06:38:32;;;;;;;10.30;6.38;;;;;;;;;;5073169;28;20540;-77
2022/01/07 06:40:58;;;;;;;9.43;6.40;;;;;;;;;;5072718;28;20047;-76
2022/01/07 06:43:24;;;;;;;11.82;6.00;;;;;;;;;;5073223;28;20400;-77
2022/01/07 06:45:50;;;;;;;8.93;4.32;;;;;;;;;;5072781;28;20040;-78
2022/01/07 06:48:18;;;;;;;9.02;5.60;;;;;;;;;;5072675;28;20044;-75
2022/01/07 06:50:44;;;;;;;10.63;6.15;;;;;;;;;;5072642;28;20515;-75
2022/01/07 06:53:10;;;;;;;9.35;6.22;;;;;;;;;;5072917;28;20044;-78
2022/01/07 06:55:36;;;;;;;10.88;5.95;;;;;;;;;;5072594;28;20045;-76
2022/01/07 06:58:02;;;;;;;10.32;5.90;;;;;;;;;;5072515;28;20395;-79
2022/01/07 07:00:29;;;;;;;11.77;6.50;;;;;;;;;;5072621;28;20136;-76
2022/01/07 07:02:55;;;;;;;11.43;5.45;;;;;;;;;;5072561;28;20086;-77
2022/01/07 07:05:21;;;;;;;10.70;6.30;;;;;;;;;;5072491;28;20037;-77
2022/01/07 07:07:47;;;;;;;9.70;5.60;;;;;;;;;;5072438;28;20043;-76
2022/01/07 07:10:13;;;;;;;11.23;6.40;;;;;;;;;;5072584;28;20045;-77
2022/01/07 07:12:39;;;;;;;10.38;6.85;;;;;;;;;;5072268;28;20059;-77
2022/01/07 07:15:05;;;;;;;9.88;6.30;;;;;;;;;;5072743;28;20397;-76
2022/01/07 07:17:31;;;;;;;9.35;5.60;;;;;;;;;;5072216;28;20094;-76
2022/01/07 07:19:57;;;;;;;10.40;5.78;;;;;;;;;;5072303;28;20040;-77
2022/01/07 07:22:23;;;;;;;9.82;6.47;;;;;;;;;;5072421;28;20094;-77
2022/01/07 07:24:49;;;;;;;9.93;5.88;;;;;;;;;;5072447;28;20036;-76
2022/01/07 07:27:15;;;;;;;11.93;6.95;;;;;;;;;;5073127;28;20127;-77
2022/01/07 07:29:41;;;;;;;9.68;6.53;;;;;;;;;;5072587;28;20036;-75
2022/01/07 07:32:09;;;;;;;15.35;6.38;;;;;;;;;;5071613;28;20473;-76
2022/01/07 07:37:04;;;;;;;11.43;6.22;;;;;;;;;;5088896;28;20040;-76
2022/01/07 07:39:30;;;;;;;9.38;6.22;;;;;;;;;;5072023;28;20045;-76
2022/01/07 07:41:56;;;;;;;9.85;6.68;;;;;;;;;;5072197;28;20159;-75
2022/01/07 07:44:22;;;;;;;12.00;7.43;;;;;;;;;;5071986;28;20385;-77
2022/01/07 07:46:48;;;;;;;9.23;6.15;;;;;;;;;;5081369;28;20036;-77
2022/01/07 07:49:15;;;;;;;13.65;7.03;;;;;;;;;;5092405;28;20589;-76
2022/01/07 07:51:41;;;;;;;12.38;7.25;;;;;;;;;;5091197;28;20044;-77
2022/01/07 07:54:08;;;;;;;14.55;7.05;;;;;;;;;;5074818;28;20040;-77
2022/01/07 07:56:34;;;;;;;14.23;7.88;;;;;;;;;;5092189;28;20035;-76
2022/01/07 07:59:00;;;;;;;11.43;6.65;;;;;;;;;;5075268;28;20454;-76
2022/01/07 08:01:26;;;;;;;11.85;7.03;;;;;;;;;;5074986;28;20040;-79
2022/01/07 08:03:52;;;;;;;14.57;7.95;;;;;;;;;;5091841;28;20032;-74
2022/01/07 08:06:19;;;;;;;14.43;7.85;;;;;;;;;;5091641;28;20085;-75
2022/01/07 08:08:46;;;;;;;13.98;8.18;;;;;;;;;;5091822;28;20036;-76
2022/01/07 08:11:13;;;;;;;13.13;7.82;;;;;;;;;;5091942;28;20051;-76
2022/01/07 08:16:24;;;;;;;16.10;6.32;;;;;;;;;;5090402;28;20094;-75
2022/01/07 08:18:54;;;;;;;9.20;5.47;;;;;;;;;;5074558;28;20499;-77
2022/01/07 08:21:21;;;;;;;20.02;9.13;;;;;;;;;;5074594;28;20451;-79
2022/01/07 08:23:47;;;;;;;18.20;7.82;;;;;;;;;;5074666;28;20122;-76
2022/01/07 08:26:13;;;;;;;20.77;9.60;;;;;;;;;;5071442;28;20089;-76
2022/01/07 08:28:44;;;;;;;15.82;9.30;;;;;;;;;;5091467;28;20169;-75
2022/01/07 08:36:23;;;;;;;18.23;9.13;;;;;;;;;;5071167;28;20385;-75
2022/01/07 08:38:49;;;;;;;18.13;9.07;;;;;;;;;;5070984;28;20043;-76
2022/01/07 08:41:15;;;;;;;20.92;9.95;;;;;;;;;;5054338;28;20052;-74
2022/01/07 08:43:41;;;;;;;18.00;9.18;;;;;;;;;;5070499;28;20036;-78
2022/01/07 08:46:08;;;;;;;18.33;9.48;;;;;;;;;;5088172;28;20069;-75
2022/01/07 08:48:35;;;;;;;20.42;10.20;;;;;;;;;;5094966;28;20035;-76
2022/01/07 08:51:01;;;;;;;21.70;11.00;;;;;;;;;;5094772;28;20040;-76
2022/01/07 08:53:27;;;;;;;22.70;9.27;;;;;;;;;;5111600;28;20532;-75
2022/01/07 08:55:53;;;;;;;16.92;9.55;;;;;;;;;;5094517;28;20044;-76
2022/01/07 08:58:19;;;;;;;19.85;9.88;;;;;;;;;;5111625;28;20122;-76
2022/01/07 09:00:45;;;;;;;24.33;11.02;;;;;;;;;;5094510;28;20069;-76
2022/01/07 09:03:11;;;;;;;21.27;10.85;;;;;;;;;;5111557;28;20051;-78
2022/01/07 09:05:37;;;;;;;21.98;10.32;;;;;;;;;;5094722;28;20088;-76
2022/01/07 09:08:06;;;;;;;26.60;11.15;;;;;;;;;;5111474;28;20123;-76
2022/01/07 09:10:32;;;;;;;20.52;10.48;;;;;;;;;;5065187;28;20055;-77
2022/01/07 09:12:58;;;;;;;15.82;8.60;;;;;;;;;;5070519;28;20056;-77
2022/01/07 09:15:24;;;;;;;21.67;10.50;;;;;;;;;;5074899;28;20059;-75
2022/01/07 09:17:50;;;;;;;24.48;10.85;;;;;;;;;;5094312;28;20371;-77
2022/01/07 09:20:16;;;;;;;17.02;8.98;;;;;;;;;;5094173;28;20043;-75
2022/01/07 09:22:42;;;;;;;19.38;10.27;;;;;;;;;;5111358;28;20483;-75
2022/01/07 09:25:09;;;;;;;22.30;10.73;;;;;;;;;;5093987;28;20126;-75
2022/01/07 09:27:38;;;;;;;21.02;10.73;;;;;;;;;;5111312;28;20092;-77
2022/01/07 09:30:04;;;;;;;19.98;10.27;;;;;;;;;;5094043;28;20035;-75
2022/01/07 09:32:30;;;;;;;18.63;10.52;;;;;;;;;;5110896;28;20036;-74
2022/01/07 09:34:56;;;;;;;19.65;10.45;;;;;;;;;;5082891;28;20055;-74
2022/01/07 09:37:22;;;;;;;23.42;10.40;;;;;;;;;;5090461;28;20035;-76
2022/01/07 09:39:48;;;;;;;17.95;10.30;;;;;;;;;;5090547;28;20044;-77
2022/01/07 09:42:14;;;;;;;19.10;9.80;;;;;;;;;;5090455;28;20089;-79
2022/01/07 09:44:42;;;;;;;24.95;10.27;;;;;;;;;;5074258;28;20040;-75
2022/01/07 09:47:11;;;;;;;18.63;10.15;;;;;;;;;;5090716;28;20036;-77
2022/01/07 09:49:37;;;;;;;21.52;10.23;;;;;;;;;;5090654;28;20047;-75
2022/01/07 09:52:03;;;;;;;24.20;11.70;;;;;;;;;;5090507;28;20496;-76
2022/01/07 09:54:29;;;;;;;24.05;10.90;;;;;;;;;;5090447;28;20047;-76
2022/01/07 09:56:55;;;;;;;24.23;10.88;;;;;;;;;;5093505;28;20047;-76
2022/01/07 09:59:21;;;;;;;19.95;11.02;;;;;;;;;;5094513;28;20407;-75
2022/01/07 10:01:54;;;;;;;28.38;12.35;;;;;;;;;;5094560;28;20123;-78
2022/01/07 10:04:39;;;;;;;24.90;11.43;;;;;;;;;;5092201;28;20039;-77
2022/01/07 10:07:10;;;;;;;22.63;11.55;;;;;;;;;;5093646;28;20039;-77
2022/01/07 10:09:36;;;;;;;28.30;10.73;;;;;;;;;;5093825;28;20118;-76
2022/01/07 10:12:02;;;;;;;23.02;10.32;;;;;;;;;;5093248;28;20075;-78
2022/01/07 10:14:30;;;;;;;20.02;10.43;;;;;;;;;;5093761;28;20066;-77
2022/01/07 10:16:57;;;;;;;20.92;9.77;;;;;;;;;;5093719;28;20131;-76
2022/01/07 10:19:35;;;;;;;17.95;10.45;;;;;;;;;;5093116;28;20534;-75
2022/01/07 10:22:06;;;;;;;22.90;11.30;;;;;;;;;;5092283;28;20088;-76
2022/01/07 10:24:32;;;;;;;;;;;;;;;;;;5090133;28;20040;-77
2022/01/07 10:27:08;;;;;;;20.90;10.15;;;;;;;;;;5072434;28;19926;-75
2022/01/07 10:29:38;;;;;;;19.73;9.75;;;;;;;;;;5089675;28;20044;-76
2022/01/07 10:32:23;;;;;;;26.52;11.25;;;;;;;;;;5072608;28;20079;-76
2022/01/07 10:35:01;;;;;;;21.90;10.00;;;;;;;;;;5087910;28;20117;-77
2022/01/07 10:37:28;;;;;;;19.35;9.75;;;;;;;;;;5089087;28;20044;-78
2022/01/07 10:39:54;;;;;;;14.82;7.82;;;;;;;;;;5071811;28;20391;-78
2022/01/07 10:42:27;;;;;;;12.73;6.70;;;;;;;;;;5089000;28;20519;-77
2022/01/07 10:45:04;;;;;;;14.68;6.47;;;;;;;;;;5072320;28;20459;-76
2022/01/07 10:47:30;;;;;;;12.98;5.82;;;;;;;;;;5089178;28;20570;-76
2022/01/07 10:50:16;;;;;;;10.77;5.25;;;;;;;;;;5072649;28;20040;-78
2022/01/07 10:52:42;;;;;;;8.57;5.30;;;;;;;;;;5089058;28;20840;-78
2022/01/07 10:55:27;;;;;;;9.07;5.07;;;;;;;;;;5072003;28;20488;-76
2022/01/07 10:57:52;;;;;;;9.02;4.35;;;;;;;;;;5072193;28;20478;-78
2022/01/07 11:00:20;;;;;;;8.40;4.35;;;;;;;;;;5089065;28;20131;-77
2022/01/07 11:02:46;;;;;;;8.43;4.28;;;;;;;;;;5089250;28;20047;-76
2022/01/07 11:05:12;;;;;;;7.35;3.63;;;;;;;;;;5087149;28;20048;-78
2022/01/07 11:07:38;;;;;;;6.63;4.10;;;;;;;;;;5087583;28;20488;-79
2022/01/07 11:10:06;;;;;;;7.65;4.90;;;;;;;;;;5071824;28;20465;-76
2022/01/07 11:12:33;;;;;;;12.95;5.35;;;;;;;;;;5088890;28;20070;-80
2022/01/07 11:14:59;;;;;;;13.00;5.47;;;;;;;;;;5074419;28;20039;-78
2022/01/07 11:17:26;;;;;;;8.60;4.55;;;;;;;;;;5075458;28;20035;-78
2022/01/07 11:19:55;;;;;;;11.82;5.15;;;;;;;;;;5075159;28;20046;-75
2022/01/07 11:22:22;;;;;;;11.18;5.03;;;;;;;;;;5092034;28;20066;-76
2022/01/07 11:24:50;;;;;;;7.18;4.45;;;;;;;;;;5087670;28;20097;-76
2022/01/07 11:27:20;;;;;;;10.15;4.82;;;;;;;;;;5088403;28;20036;-76
2022/01/07 11:29:52;;;;;;;13.60;5.68;;;;;;;;;;5088156;28;20510;-76
2022/01/07 11:32:38;;;;;;;12.48;5.95;;;;;;;;;;5088473;28;20052;-77
2022/01/07 11:35:27;;;;;;;11.32;5.38;;;;;;;;;;5097025;28;20097;-77
2022/01/07 11:37:58;;;;;;;10.75;4.95;;;;;;;;;;5093607;28;20081;-76
2022/01/07 11:40:27;;;;;;;10.80;5.68;;;;;;;;;;5111460;28;20067;-76
2022/01/07 11:42:53;;;;;;;10.27;5.60;;;;;;;;;;5111725;28;20047;-76
2022/01/07 11:45:28;;;;;;;10.65;5.80;;;;;;;;;;5094780;28;20043;-78
2022/01/07 11:48:11;;;;;;;15.73;5.97;;;;;;;;;;5111762;28;20035;-77
2022/01/07 11:50:55;;;;;;;12.45;6.13;;;;;;;;;;5094438;28;20035;-78
2022/01/07 11:53:22;;;;;;;16.27;6.05;;;;;;;;;;5094604;28;20043;-76
2022/01/07 11:55:51;;;;;;;14.50;7.22;;;;;;;;;;5094466;28;20041;-76
2022/01/07 11:58:18;;;;;;;11.75;6.20;;;;;;;;;;5111305;28;20491;-76
2022/01/07 12:00:58;;;;;;;13.77;6.47;;;;;;;;;;5094048;28;20054;-76
2022/01/07 12:03:33;;;;;;;13.75;6.75;;;;;;;;;;5094433;28;20036;-77
2022/01/07 12:05:59;;;;;;;18.63;7.60;;;;;;;;;;5094093;28;20046;-77
2022/01/07 12:08:41;;;;;;;13.60;6.43;;;;;;;;;;5111586;28;20088;-78
2022/01/07 12:11:08;;;;;;;13.23;6.82;;;;;;;;;;5093982;28;20422;-76
2022/01/07 12:13:39;;;;;;;11.13;6.43;;;;;;;;;;5110381;28;20067;-76
2022/01/07 12:16:05;;;;;;;15.10;6.57;;;;;;;;;;5093640;28;20055;-77
2022/01/07 12:18:33;;;;;;;10.75;6.55;;;;;;;;;;5093345;28;20085;-77
2022/01/07 12:20:58;;;;;;;11.90;6.45;;;;;;;;;;5093955;28;20081;-78
2022/01/07 12:23:25;;;;;;;15.05;6.75;;;;;;;;;;5111360;28;20067;-76
2022/01/07 12:25:51;;;;;;;14.20;5.93;;;;;;;;;;5093605;28;20135;-77
2022/01/07 12:28:17;;;;;;;14.52;7.35;;;;;;;;;;5094373;28;20043;-77
2022/01/07 12:30:43;;;;;;;14.65;7.20;;;;;;;;;;5093698;28;20395;-76
2022/01/07 12:33:10;;;;;;;15.85;7.15;;;;;;;;;;5110752;28;20495;-77
2022/01/07 12:35:37;;;;;;;12.77;6.40;;;;;;;;;;5093647;28;20126;-74
2022/01/07 12:38:10;;;;;;;14.52;6.68;;;;;;;;;;5110547;28;20342;-76
2022/01/07 12:40:36;;;;;;;10.57;5.25;;;;;;;;;;5093547;28;20176;-77
2022/01/07 12:43:02;;;;;;;11.40;5.95;;;;;;;;;;5110452;28;20122;-76
2022/01/07 12:45:28;;;;;;;13.02;5.75;;;;;;;;;;5110760;28;20040;-77
2022/01/07 12:47:54;;;;;;;6.50;3.10;;;;;;;;;;5093860;28;20036;-76
2022/01/07 12:50:22;;;;;;;6.03;3.20;;;;;;;;;;5110252;28;20051;-75
2022/01/07 12:52:48;;;;;;;5.07;3.25;;;;;;;;;;5093311;28;20044;-76
2022/01/07 12:55:17;;;;;;;5.05;2.90;;;;;;;;;;5093428;28;20039;-75
2022/01/07 12:57:44;;;;;;;8.32;3.25;;;;;;;;;;5110621;28;20062;-78
2022/01/07 13:00:25;;;;;;;6.25;2.33;;;;;;;;;;5093589;28;20039;-76
2022/01/07 13:02:51;;;;;;;;;;;;;;;;;;5110989;28;20455;-77
2022/01/07 13:05:27;;;;;;;5.75;1.83;;;;;;;;;;5093309;28;19975;-76
2022/01/07 13:07:54;;;;;;;4.45;1.55;;;;;;;;;;5093359;28;20031;-77
2022/01/07 13:10:22;;;;;;;6.63;1.20;;;;;;;;;;5110405;28;20040;-77
2022/01/07 13:13:02;;;;;;;4.78;1.20;;;;;;;;;;5110125;28;20052;-77
2022/01/07 13:15:53;;;;;;;7.13;1.08;;;;;;;;;;5093314;28;20453;-75
2022/01/07 13:18:25;;;;;;;4.68;1.02;;;;;;;;;;5093140;28;20546;-78
2022/01/07 13:20:52;;;;;;;5.90;1.10;;;;;;;;;;5110055;28;20127;-77
2022/01/07 13:23:19;;;;;;;2.75;1.27;;;;;;;;;;5093230;28;20403;-76
2022/01/07 13:25:45;;;;;;;2.70;1.40;;;;;;;;;;5110292;28;20031;-78
2022/01/07 13:28:12;;;;;;;6.53;1.23;;;;;;;;;;5093232;28;20038;-76
2022/01/07 13:30:38;;;;;;;10.80;1.75;;;;;;;;;;5111018;28;20050;-76
2022/01/07 13:33:07;;;;;;;7.07;1.70;;;;;;;;;;5114330;28;20031;-77
2022/01/07 13:35:35;;;;;;;2.08;0.73;;;;;;;;;;5089398;28;20051;-78
2022/01/07 13:38:01;;;;;;;6.38;1.90;;;;;;;;;;5093300;28;20408;-78
2022/01/07 13:40:28;;;;;;;8.63;2.10;;;;;;;;;;5093648;28;20123;-76
2022/01/07 13:43:05;;;;;;;4.43;1.60;;;;;;;;;;5093481;28;20123;-77
2022/01/07 13:45:31;;;;;;;6.15;1.45;;;;;;;;;;5093992;28;20036;-78
2022/01/07 13:48:04;;;;;;;10.55;2.67;;;;;;;;;;5076736;28;20185;-79
2022/01/07 13:50:32;;;;;;;7.15;2.05;;;;;;;;;;5093734;28;20079;-76
2022/01/07 13:52:58;;;;;;;6.75;1.92;;;;;;;;;;5093654;28;20044;-76
2022/01/07 13:55:25;;;;;;;7.57;2.88;;;;;;;;;;5076595;28;20530;-77
2022/01/07 13:57:51;;;;;;;3.50;2.17;;;;;;;;;;5093553;28;20036;-77
2022/01/07 14:00:17;;;;;;;6.18;3.08;;;;;;;;;;5076408;28;20113;-76
2022/01/07 14:02:50;;;;;;;10.98;3.75;;;;;;;;;;5093677;28;20418;-76
2022/01/07 14:05:17;;;;;;;6.78;2.92;;;;;;;;;;5077806;28;20119;-79
2022/01/07 14:07:47;;;;;;;5.20;3.08;;;;;;;;;;5113960;28;20036;-76
2022/01/07 14:10:24;;;;;;;5.60;2.38;;;;;;;;;;5096927;28;20082;-78
2022/01/07 14:12:56;;;;;;;6.40;3.53;;;;;;;;;;5113534;28;20547;-75
2022/01/07 14:15:43;;;;;;;6.88;2.60;;;;;;;;;;5113867;28;20094;-76
2022/01/07 14:18:13;;;;;;;10.27;3.50;;;;;;;;;;5113367;28;20074;-77
2022/01/07 14:20:39;;;;;;;4.40;2.53;;;;;;;;;;5096782;28;20484;-76
2022/01/07 14:23:05;;;;;;;8.50;3.50;;;;;;;;;;5093623;28;20114;-75
2022/01/07 14:25:31;;;;;;;8.00;3.00;;;;;;;;;;5109982;28;20138;-78
2022/01/07 14:27:57;;;;;;;6.97;3.00;;;;;;;;;;5109645;28;20100;-77
2022/01/07 14:30:23;;;;;;;8.80;3.75;;;;;;;;;;5092998;28;20391;-76
2022/01/07 14:32:50;;;;;;;7.15;3.08;;;;;;;;;;5109543;28;20267;-77
2022/01/07 14:35:16;;;;;;;8.18;3.30;;;;;;;;;;5091361;28;20484;-77
2022/01/07 14:37:43;;;;;;;5.88;3.15;;;;;;;;;;5092721;28;20075;-77
2022/01/07 14:40:09;;;;;;;9.95;3.35;;;;;;;;;;5108735;28;20054;-76
2022/01/07 14:42:35;;;;;;;8.18;2.45;;;;;;;;;;5109439;28;20051;-77
2022/01/07 14:45:01;;;;;;;7.13;2.72;;;;;;;;;;5092590;28;20043;-77